createdAt,value
2019-05-10T00:00:56.432Z,20.57
2019-05-10T00:02:48.393Z,21.97
2019-05-10T00:04:40.669Z,21.48
2019-05-10T00:06:33.433Z,20.27
2019-05-10T00:08:26.488Z,22.87
2019-05-10T00:10:00.052Z,22.95
2019-05-10T00:11:49.309Z,23.18
2019-05-10T00:13:25.581Z,21.57
2019-05-10T00:14:59.993Z,21.33
2019-05-10T00:16:34.423Z,23.12
2019-05-10T00:18:09.050Z,21.55
2019-05-10T00:19:43.268Z,21.30
2019-05-10T00:21:17.685Z,22.95
2019-05-10T00:22:51.961Z,24.75
2019-05-10T00:24:26.908Z,22.77
2019-05-10T00:26:01.125Z,25.25
2019-05-10T00:27:35.598Z,24.15
2019-05-10T00:29:09.821Z,23.38
2019-05-10T00:30:44.860Z,22.62
2019-05-10T00:32:19.088Z,23.62
2019-05-10T00:33:53.553Z,21.75
2019-05-10T00:35:29.304Z,21.25
2019-05-10T00:37:04.285Z,20.25
2019-05-10T00:38:38.501Z,19.98
2019-05-10T00:40:13.136Z,20.10
2019-05-10T00:41:47.445Z,19.70
2019-05-10T00:43:22.113Z,21.60
2019-05-10T00:44:56.406Z,22.90
2019-05-10T00:46:30.870Z,23.15
2019-05-10T00:48:05.137Z,22.98
2019-05-10T00:49:39.864Z,22.07
2019-05-10T00:51:14.157Z,22.13
2019-05-10T00:52:48.612Z,22.40
2019-05-10T00:54:22.840Z,20.75
2019-05-10T00:55:57.720Z,21.25
2019-05-10T00:57:31.986Z,21.05
2019-05-10T00:59:06.384Z,20.48
2019-05-10T01:00:40.782Z,21.50
2019-05-10T01:02:15.717Z,21.87
2019-05-10T01:03:49.921Z,19.70
2019-05-10T01:05:24.320Z,20.62
2019-05-10T01:06:58.539Z,20.05
2019-05-10T01:08:33.547Z,20.45
2019-05-10T01:10:09.555Z,19.95
2019-05-10T01:11:43.996Z,21.17
2019-05-10T01:13:18.295Z,20.37
2019-05-10T01:14:53.141Z,20.15
2019-05-10T01:16:27.564Z,20.92
2019-05-10T01:18:02.010Z,20.50
2019-05-10T01:19:36.312Z,21.70
2019-05-10T01:21:11.001Z,21.97
2019-05-10T01:22:45.325Z,20.70
2019-05-10T01:24:19.727Z,20.77
2019-05-10T01:25:54.032Z,20.90
2019-05-10T01:27:28.993Z,20.60
2019-05-10T01:29:03.857Z,21.05
2019-05-10T01:30:38.264Z,21.85
2019-05-10T01:32:12.688Z,21.95
2019-05-10T01:33:47.432Z,22.32
2019-05-10T01:35:21.652Z,21.95
2019-05-10T01:36:56.109Z,22.15
2019-05-10T01:38:30.329Z,21.35
2019-05-10T01:40:07.862Z,22.50
2019-05-10T01:41:42.088Z,21.95
2019-05-10T01:43:16.488Z,21.97
2019-05-10T01:44:50.724Z,21.93
2019-05-10T01:46:25.824Z,22.70
2019-05-10T01:48:00.044Z,22.50
2019-05-10T01:49:34.452Z,22.00
2019-05-10T01:51:08.671Z,21.37
2019-05-10T01:52:43.473Z,22.55
2019-05-10T01:54:17.685Z,21.48
2019-05-10T01:55:53.047Z,21.55
2019-05-10T01:57:27.484Z,20.97
2019-05-10T01:59:02.455Z,21.25
2019-05-10T02:00:36.698Z,22.10
2019-05-10T02:02:11.090Z,21.37
2019-05-10T02:03:45.370Z,21.30
2019-05-10T02:05:20.726Z,21.48
2019-05-10T02:06:54.944Z,21.20
2019-05-10T02:08:29.365Z,23.47
2019-05-10T02:10:06.804Z,21.23
2019-05-10T02:11:41.524Z,21.07
2019-05-10T02:13:15.861Z,21.73
2019-05-10T02:14:50.269Z,22.37
2019-05-10T02:16:24.492Z,22.60
2019-05-10T02:17:59.506Z,23.38
2019-05-10T02:19:33.778Z,23.35
2019-05-10T02:21:08.266Z,23.42
2019-05-10T02:22:42.561Z,23.75
2019-05-10T02:24:17.477Z,23.65
2019-05-10T02:26:07.236Z,23.25
2019-05-10T02:27:27.843Z,23.35
2019-05-10T02:29:02.065Z,23.25
2019-05-10T02:30:36.884Z,23.35
2019-05-10T02:32:11.111Z,23.90
2019-05-10T02:33:45.569Z,22.80
2019-05-10T02:35:19.841Z,22.93
2019-05-10T02:36:54.422Z,25.15
2019-05-10T02:38:28.644Z,25.05
2019-05-10T02:40:03.184Z,23.62
2019-05-10T02:41:37.407Z,23.52
2019-05-10T02:43:12.277Z,24.40
2019-05-10T02:44:46.511Z,24.23
2019-05-10T02:46:20.950Z,24.20
2019-05-10T02:47:55.173Z,23.98
2019-05-10T02:49:29.839Z,22.50
2019-05-10T02:51:04.125Z,23.65
2019-05-10T02:52:38.586Z,23.67
2019-05-10T02:54:12.862Z,23.87
2019-05-10T02:55:49.534Z,22.20
2019-05-10T02:57:23.873Z,23.10
2019-05-10T02:58:59.434Z,23.70
2019-05-10T03:00:36.924Z,22.70
2019-05-10T03:02:13.119Z,23.70
2019-05-10T03:03:50.124Z,24.40
2019-05-10T03:05:27.617Z,24.40
2019-05-10T03:07:06.387Z,22.77
2019-05-10T03:08:52.488Z,22.15
2019-05-10T03:10:29.709Z,22.02
2019-05-10T03:12:24.823Z,21.27
2019-05-10T03:14:02.599Z,21.42
2019-05-10T03:15:37.428Z,20.92
2019-05-10T03:17:14.010Z,21.95
2019-05-10T03:18:53.768Z,21.12
2019-05-10T03:20:28.504Z,21.77
2019-05-10T03:22:08.832Z,21.25
2019-05-10T03:23:43.176Z,21.70
2019-05-10T03:25:17.574Z,22.50
2019-05-10T03:26:51.984Z,21.82
2019-05-10T03:28:26.428Z,21.73
2019-05-10T03:30:00.654Z,20.15
2019-05-10T03:31:35.151Z,21.70
2019-05-10T03:33:09.974Z,22.37
2019-05-10T03:34:44.501Z,22.22
2019-05-10T03:36:18.716Z,23.65
2019-05-10T03:37:53.468Z,22.10
2019-05-10T03:39:28.534Z,23.30
2019-05-10T03:41:03.016Z,22.27
2019-05-10T03:42:37.389Z,21.48
2019-05-10T03:44:11.771Z,22.55
2019-05-10T03:45:46.290Z,21.52
2019-05-10T03:47:20.816Z,20.70
2019-05-10T03:48:55.066Z,22.45
2019-05-10T03:50:29.469Z,21.75
2019-05-10T03:52:03.947Z,20.25
2019-05-10T03:53:38.388Z,18.90
2019-05-10T03:55:12.678Z,19.67
2019-05-10T03:56:47.080Z,19.35
2019-05-10T03:58:21.498Z,19.57
2019-05-10T03:59:55.978Z,20.57
2019-05-10T04:01:30.213Z,19.82
2019-05-10T04:03:04.689Z,18.80
2019-05-10T04:04:39.336Z,20.97
2019-05-10T04:06:13.811Z,19.32
2019-05-10T04:07:48.052Z,18.95
2019-05-10T04:09:22.454Z,19.62
2019-05-10T04:10:57.154Z,18.42
2019-05-10T04:12:31.548Z,19.60
2019-05-10T04:14:05.829Z,18.23
2019-05-10T04:15:40.297Z,19.05
2019-05-10T04:17:14.867Z,19.82
2019-05-10T04:18:49.277Z,20.27
2019-05-10T04:20:24.304Z,19.25
2019-05-10T04:22:00.321Z,19.98
2019-05-10T04:23:35.081Z,19.37
2019-05-10T04:25:09.693Z,19.17
2019-05-10T04:26:43.905Z,19.37
2019-05-10T04:28:18.309Z,19.65
2019-05-10T04:29:53.029Z,18.42
2019-05-10T04:31:27.434Z,18.87
2019-05-10T04:33:01.657Z,20.05
2019-05-10T04:34:36.130Z,19.77
2019-05-10T04:36:12.673Z,18.35
2019-05-10T04:37:47.061Z,19.65
2019-05-10T04:39:21.277Z,18.75
2019-05-10T04:40:55.696Z,19.17
2019-05-10T04:42:30.489Z,18.27
2019-05-10T04:44:05.925Z,18.45
2019-05-10T04:45:40.149Z,17.27
2019-05-10T04:47:14.557Z,18.05
2019-05-10T04:48:49.168Z,17.20
2019-05-10T04:50:23.656Z,17.87
2019-05-10T04:51:57.904Z,17.23
2019-05-10T04:53:32.352Z,16.30
2019-05-10T04:55:08.250Z,17.65
2019-05-10T04:56:42.661Z,16.07
2019-05-10T04:58:16.929Z,15.20
2019-05-10T04:59:51.457Z,15.70
2019-05-10T05:01:25.812Z,15.65
2019-05-10T05:03:00.347Z,15.40
2019-05-10T05:04:34.545Z,16.65
2019-05-10T05:06:09.072Z,16.00
2019-05-10T05:07:43.769Z,15.53
2019-05-10T05:09:18.245Z,15.70
2019-05-10T05:10:52.503Z,14.60
2019-05-10T05:12:26.981Z,14.70
2019-05-10T05:14:01.356Z,14.25
2019-05-10T05:15:35.777Z,12.25
2019-05-10T05:17:10.000Z,12.70
2019-05-10T05:18:44.462Z,11.68
2019-05-10T05:20:18.967Z,12.13
2019-05-10T05:21:53.388Z,11.85
2019-05-10T05:23:27.605Z,12.05
2019-05-10T05:25:03.806Z,10.98
2019-05-10T05:26:38.464Z,10.35
2019-05-10T05:28:12.984Z,10.93
2019-05-10T05:29:47.376Z,11.40
2019-05-10T05:31:21.835Z,11.60
2019-05-10T05:32:57.022Z,12.15
2019-05-10T05:34:31.537Z,11.38
2019-05-10T05:36:05.784Z,11.48
2019-05-10T05:37:40.245Z,13.00
2019-05-10T05:39:14.914Z,11.53
2019-05-10T05:40:49.316Z,12.00
2019-05-10T05:42:28.022Z,12.53
2019-05-10T05:43:59.751Z,15.05
2019-05-10T05:45:35.614Z,13.80
2019-05-10T05:47:10.317Z,14.40
2019-05-10T05:48:44.616Z,12.70
2019-05-10T05:50:19.280Z,11.22
2019-05-10T05:51:54.012Z,11.03
2019-05-10T05:53:28.417Z,16.35
2019-05-10T05:55:02.668Z,11.95
2019-05-10T05:56:37.057Z,12.25
2019-05-10T05:58:25.265Z,11.93
2019-05-10T05:59:49.203Z,11.95
2019-05-10T06:01:29.086Z,11.15
2019-05-10T06:02:59.756Z,12.07
2019-05-10T06:04:34.198Z,13.72
2019-05-10T06:06:21.810Z,12.10
2019-05-10T06:07:44.533Z,12.40
2019-05-10T06:09:18.972Z,12.33
2019-05-10T06:10:57.579Z,12.00
2019-05-10T06:12:29.701Z,12.18
2019-05-10T06:14:10.883Z,11.45
2019-05-10T06:15:41.490Z,12.37
2019-05-10T06:17:16.189Z,12.60
2019-05-10T06:18:50.644Z,12.45
2019-05-10T06:20:24.956Z,12.43
2019-05-10T06:22:04.398Z,12.78
2019-05-10T06:23:36.844Z,12.68
2019-05-10T06:25:11.693Z,12.35
2019-05-10T06:26:46.001Z,14.50
2019-05-10T06:28:28.779Z,12.95
2019-05-10T06:29:57.029Z,13.65
2019-05-10T06:31:31.447Z,12.40
2019-05-10T06:33:12.604Z,11.73
2019-05-10T06:34:41.884Z,12.35
2019-05-10T06:36:16.441Z,10.80
2019-05-10T06:37:50.861Z,10.23
2019-05-10T06:39:25.131Z,11.97
2019-05-10T06:40:59.553Z,9.90
2019-05-10T06:42:34.601Z,10.25
2019-05-10T06:44:10.201Z,9.70
2019-05-10T06:45:46.769Z,10.18
2019-05-10T06:47:21.975Z,10.80
2019-05-10T06:49:07.204Z,11.00
2019-05-10T06:50:32.793Z,9.65
2019-05-10T06:52:07.008Z,8.83
2019-05-10T06:53:48.837Z,8.60
2019-05-10T06:55:17.576Z,8.40
2019-05-10T06:56:51.964Z,7.30
2019-05-10T06:58:30.464Z,7.05
2019-05-10T07:00:06.448Z,7.80
2019-05-10T07:01:45.075Z,7.42
2019-05-10T07:03:14.606Z,7.35
2019-05-10T07:04:48.816Z,7.08
2019-05-10T07:06:23.234Z,7.20
2019-05-10T07:08:00.545Z,6.80
2019-05-10T07:10:00.325Z,5.22
2019-05-10T07:11:09.673Z,5.22
2019-05-10T07:12:45.466Z,5.47
2019-05-10T07:14:25.555Z,5.33
2019-05-10T07:15:56.296Z,5.65
2019-05-10T07:17:30.564Z,5.65
2019-05-10T07:19:04.966Z,4.55
2019-05-10T07:20:42.970Z,3.70
2019-05-10T07:22:21.733Z,2.60
2019-05-10T07:23:52.012Z,2.80
2019-05-10T07:25:26.481Z,2.98
2019-05-10T07:27:02.208Z,3.22
2019-05-10T07:28:37.136Z,2.67
2019-05-10T07:30:11.942Z,3.05
2019-05-10T07:31:46.340Z,3.05
2019-05-10T07:33:21.104Z,2.90
2019-05-10T07:35:00.417Z,3.20
2019-05-10T07:36:31.356Z,2.67
2019-05-10T07:38:05.753Z,3.05
2019-05-10T07:39:40.310Z,3.25
2019-05-10T07:41:19.362Z,2.72
2019-05-10T07:42:52.020Z,3.00
2019-05-10T08:32:37.899Z,2.72
2019-05-10T08:34:12.318Z,3.10
2019-05-10T08:35:46.812Z,3.33
2019-05-10T08:37:33.138Z,3.40
2019-05-10T08:39:07.732Z,3.50
2019-05-10T08:40:37.964Z,2.50
2019-05-10T08:42:29.338Z,2.77
2019-05-10T08:43:48.479Z,2.25
2019-05-10T08:45:23.036Z,2.10
2019-05-10T08:46:57.417Z,2.60
2019-05-10T08:48:33.047Z,2.20
2019-05-10T08:50:26.298Z,2.12
2019-05-10T08:51:49.145Z,2.15
2019-05-10T08:53:20.100Z,2.60
2019-05-10T08:54:55.364Z,2.05
2019-05-10T08:56:30.036Z,2.75
2019-05-10T08:58:04.478Z,2.52
2019-05-10T08:59:38.868Z,1.87
2019-05-10T09:01:25.869Z,1.92
2019-05-10T09:02:49.176Z,2.60
2019-05-10T09:04:23.967Z,2.20
2019-05-10T09:06:05.287Z,2.08
2019-05-10T09:07:38.856Z,2.20
2019-05-10T09:09:12.373Z,3.20
2019-05-10T09:10:46.545Z,3.25
2019-05-10T09:12:22.941Z,2.35
2019-05-10T09:13:57.807Z,2.47
2019-05-10T09:15:33.119Z,1.57
2019-05-10T09:17:07.930Z,1.60
2019-05-10T09:18:46.259Z,1.57
2019-05-10T09:20:26.222Z,2.02
2019-05-10T09:21:55.072Z,1.80
2019-05-10T09:23:29.836Z,3.37
2019-05-10T09:25:05.457Z,6.37
2019-05-10T09:26:41.717Z,5.00
2019-05-10T09:28:17.126Z,3.85
2019-05-10T09:29:53.002Z,3.45
2019-05-10T09:31:28.625Z,2.80
2019-05-10T09:33:08.654Z,2.50
2019-05-10T09:34:38.904Z,2.00
2019-05-10T09:36:13.301Z,2.50
2019-05-10T09:37:52.886Z,7.90
2019-05-10T09:39:25.226Z,4.03
2019-05-10T09:41:02.271Z,1.82
2019-05-10T09:42:40.022Z,1.37
2019-05-10T09:44:13.058Z,1.20
2019-05-10T09:45:47.805Z,1.45
2019-05-10T09:47:22.298Z,1.20
2019-05-10T09:49:06.130Z,1.50
2019-05-10T09:50:41.162Z,1.70
2019-05-10T09:52:12.821Z,1.52
2019-05-10T09:53:48.329Z,1.15
2019-05-10T09:55:21.753Z,0.93
2019-05-10T09:56:57.535Z,1.87
2019-05-10T09:58:32.213Z,1.40
2019-05-10T10:00:07.928Z,1.07
2019-05-10T10:01:42.687Z,1.57
2019-05-10T10:03:17.076Z,1.50
2019-05-10T10:04:51.301Z,1.50
2019-05-10T10:06:29.549Z,2.20
2019-05-10T10:08:03.592Z,1.27
2019-05-10T10:09:44.527Z,3.58
2019-05-10T10:11:15.712Z,2.83
2019-05-10T10:12:49.985Z,1.45
2019-05-10T10:14:24.645Z,0.90
2019-05-10T10:16:03.915Z,1.52
2019-05-10T10:17:40.177Z,1.30
2019-05-10T10:19:11.350Z,1.20
2019-05-10T10:20:47.899Z,1.00
2019-05-10T10:22:21.920Z,1.30
2019-05-10T10:24:00.040Z,0.90
2019-05-10T10:25:35.099Z,0.80
2019-05-10T10:27:08.965Z,1.00
2019-05-10T10:28:43.394Z,1.00
2019-05-10T10:30:21.087Z,1.27
2019-05-10T10:31:58.304Z,1.10
2019-05-10T10:33:30.211Z,1.47
2019-05-10T10:35:07.635Z,1.30
2019-05-10T10:36:43.986Z,1.40
2019-05-10T10:38:17.899Z,1.30
2019-05-10T10:39:54.469Z,0.90
2019-05-10T10:41:31.693Z,1.12
2019-05-10T10:43:07.262Z,0.95
2019-05-10T10:44:41.155Z,0.90
2019-05-10T10:46:17.698Z,0.72
2019-05-10T10:47:51.853Z,0.95
2019-05-10T10:49:28.059Z,0.80
2019-05-10T10:51:02.720Z,0.93
2019-05-10T10:52:37.608Z,1.10
2019-05-10T10:54:12.213Z,0.95
2019-05-10T10:55:54.157Z,0.72
2019-05-10T10:57:22.636Z,0.70
2019-05-10T10:58:58.063Z,0.70
2019-05-10T11:00:38.412Z,1.00
2019-05-10T11:03:49.051Z,0.70
2019-05-10T11:05:23.650Z,1.00
2019-05-10T11:07:09.966Z,1.15
2019-05-10T11:08:34.849Z,1.20
2019-05-10T11:10:17.861Z,1.70
2019-05-10T11:11:46.035Z,1.80
2019-05-10T11:13:40.155Z,1.50
2019-05-10T11:14:56.422Z,1.80
2019-05-10T11:16:30.815Z,1.02
2019-05-10T11:18:07.048Z,1.30
2019-05-10T11:19:41.794Z,0.93
2019-05-10T11:21:16.552Z,1.10
2019-05-10T11:22:53.342Z,0.80
2019-05-10T11:24:27.075Z,0.78
2019-05-10T11:26:01.543Z,1.30
2019-05-10T11:27:35.706Z,2.62
2019-05-10T11:29:13.972Z,2.58
2019-05-10T11:30:47.801Z,2.30
2019-05-10T11:32:22.232Z,0.90
2019-05-10T11:33:58.728Z,0.80
2019-05-10T11:35:34.668Z,1.30
2019-05-10T11:37:09.140Z,1.32
2019-05-10T11:38:46.941Z,1.30
2019-05-10T11:40:30.337Z,1.80
2019-05-10T11:42:02.046Z,1.52
2019-05-10T11:43:32.423Z,1.07
2019-05-10T11:45:11.093Z,1.10
2019-05-10T11:46:45.504Z,1.17
2019-05-10T11:48:21.591Z,1.42
2019-05-10T11:49:56.340Z,2.20
2019-05-10T11:51:31.704Z,1.15
2019-05-10T11:53:13.243Z,1.52
2019-05-10T11:54:42.449Z,1.55
2019-05-10T11:56:16.940Z,1.62
2019-05-10T11:58:01.928Z,1.22
2019-05-10T11:59:33.773Z,1.40
2019-05-10T12:01:14.811Z,1.50
2019-05-10T12:06:04.386Z,1.12
2019-05-10T12:07:40.685Z,1.00
2019-05-10T12:09:12.349Z,1.25
2019-05-10T12:10:53.046Z,0.95
2019-05-10T12:12:29.688Z,1.20
2019-05-10T12:13:58.117Z,1.02
2019-05-10T12:15:32.669Z,1.07
2019-05-10T12:17:07.041Z,1.57
2019-05-10T12:18:50.264Z,1.50
2019-05-10T12:20:17.317Z,1.32
2019-05-10T12:21:55.579Z,1.92
2019-05-10T12:23:31.309Z,1.50
2019-05-10T12:25:23.321Z,2.90
2019-05-10T12:26:06.157Z,1.82
2019-05-10T12:26:49.987Z,1.47
2019-05-10T12:27:13.978Z,2.30
2019-05-10T12:28:23.993Z,2.90
2019-05-10T12:29:59.593Z,2.27
2019-05-10T12:31:31.121Z,2.37
2019-05-10T12:33:09.430Z,2.45
2019-05-10T12:34:46.055Z,0.90
2019-05-10T12:36:23.776Z,1.52
2019-05-10T12:37:54.426Z,1.22
2019-05-10T12:39:30.979Z,1.55
2019-05-10T12:41:05.626Z,1.15
2019-05-10T12:42:41.736Z,1.20
2019-05-10T12:44:16.341Z,1.20
2019-05-10T12:45:51.771Z,1.50
2019-05-10T12:47:26.816Z,2.00
2019-05-10T12:49:02.174Z,1.70
2019-05-10T12:50:37.120Z,2.12
2019-05-10T12:52:14.147Z,3.40
2019-05-10T12:53:49.154Z,1.90
2019-05-10T12:55:23.746Z,1.60
2019-05-10T12:56:58.010Z,2.30
2019-05-10T12:58:32.481Z,2.12
2019-05-10T13:00:13.349Z,2.20
2019-05-10T13:01:44.179Z,1.87
2019-05-10T13:03:19.613Z,2.00
2019-05-10T13:04:54.556Z,2.08
2019-05-10T13:06:29.103Z,2.67
2019-05-10T13:08:03.525Z,2.50
2019-05-10T13:09:40.758Z,2.05
2019-05-10T13:11:18.865Z,2.25
2019-05-10T13:12:50.287Z,2.58
2019-05-10T13:14:24.716Z,3.08
2019-05-10T13:16:03.693Z,2.70
2019-05-10T13:17:37.303Z,2.70
2019-05-10T13:19:14.063Z,2.98
2019-05-10T13:20:47.912Z,2.87
2019-05-10T13:22:22.118Z,3.17
2019-05-10T13:23:56.501Z,2.33
2019-05-10T13:25:30.958Z,2.85
2019-05-10T13:27:05.500Z,2.85
2019-05-10T13:28:40.684Z,3.30
2019-05-10T13:30:15.448Z,1.65
2019-05-10T13:31:50.259Z,2.10
2019-05-10T13:33:29.273Z,2.05
2019-05-10T13:35:02.078Z,2.55
2019-05-10T13:36:37.414Z,2.17
2019-05-10T13:38:12.723Z,2.22
2019-05-10T13:39:47.115Z,2.55
2019-05-10T13:41:24.030Z,2.42
2019-05-10T13:42:59.137Z,2.47
2019-05-10T13:44:36.940Z,2.22
2019-05-10T13:46:11.507Z,2.92
2019-05-10T13:47:45.833Z,2.95
2019-05-10T13:49:20.236Z,2.70
2019-05-10T13:50:54.790Z,2.22
2019-05-10T13:52:37.228Z,2.05
2019-05-10T13:54:05.507Z,3.15
2019-05-10T13:55:40.073Z,2.65
2019-05-10T13:57:14.615Z,2.00
2019-05-10T13:58:49.004Z,2.70
2019-05-10T14:00:33.021Z,2.30
2019-05-10T14:01:59.668Z,3.22
2019-05-10T14:03:43.693Z,3.62
2019-05-10T14:05:11.839Z,3.85
2019-05-10T14:06:46.251Z,3.40
2019-05-10T14:08:20.668Z,2.77
2019-05-10T14:09:56.970Z,3.02
2019-05-10T14:11:34.230Z,2.33
2019-05-10T14:13:07.304Z,2.17
2019-05-10T14:14:41.707Z,4.47
2019-05-10T14:16:19.901Z,2.80
2019-05-10T14:17:53.861Z,2.08
2019-05-10T14:19:28.215Z,2.77
2019-05-10T14:21:02.602Z,2.67
2019-05-10T14:22:37.028Z,2.60
2019-05-10T14:24:15.131Z,1.70
2019-05-10T14:25:47.400Z,2.08
2019-05-10T14:27:21.833Z,2.20
2019-05-10T14:28:56.216Z,7.58
2019-05-10T14:30:30.651Z,8.50
2019-05-10T14:32:05.329Z,4.62
2019-05-10T14:33:39.724Z,2.83
2019-05-10T14:35:16.395Z,4.30
2019-05-10T14:36:50.774Z,4.15
2019-05-10T14:38:24.981Z,2.95
2019-05-10T14:40:00.820Z,2.72
2019-05-10T14:41:35.266Z,2.33
2019-05-10T14:43:09.703Z,3.17
2019-05-10T14:44:43.919Z,2.12
2019-05-10T14:46:18.310Z,1.80
2019-05-10T14:47:52.820Z,3.27
2019-05-10T14:49:27.252Z,3.45
2019-05-10T14:51:02.859Z,3.40
2019-05-10T14:52:37.665Z,2.33
2019-05-10T14:54:12.113Z,3.83
2019-05-10T14:55:46.546Z,2.22
2019-05-10T14:57:20.757Z,1.90
2019-05-10T14:58:55.162Z,2.98
2019-05-10T15:00:29.657Z,2.05
2019-05-10T15:02:04.101Z,2.70
2019-05-10T15:03:45.641Z,2.40
2019-05-10T15:05:18.034Z,2.15
2019-05-10T15:06:51.888Z,1.90
2019-05-10T15:08:27.845Z,1.90
2019-05-10T15:10:02.502Z,1.90
2019-05-10T15:11:37.706Z,1.70
2019-05-10T15:13:12.348Z,1.90
2019-05-10T15:14:46.725Z,1.77
2019-05-10T15:16:27.657Z,2.27
2019-05-10T15:18:01.923Z,1.95
2019-05-10T15:19:33.171Z,2.00
2019-05-10T15:21:07.637Z,2.22
2019-05-10T15:22:41.880Z,2.50
2019-05-10T15:24:16.280Z,2.00
2019-05-10T15:25:57.271Z,1.80
2019-05-10T15:27:26.912Z,2.20
2019-05-10T15:29:01.172Z,1.55
2019-05-10T15:30:39.254Z,1.70
2019-05-10T15:32:11.856Z,2.02
2019-05-10T15:33:46.260Z,2.20
2019-05-10T15:35:20.504Z,2.12
2019-05-10T15:36:54.900Z,2.70
2019-05-10T15:38:29.489Z,2.25
2019-05-10T15:40:06.566Z,2.17
2019-05-10T15:41:41.511Z,2.20
2019-05-10T15:43:17.232Z,2.70
2019-05-10T15:44:52.181Z,2.50
2019-05-10T15:46:35.290Z,2.08
2019-05-10T15:48:05.924Z,2.60
2019-05-10T15:49:40.331Z,3.27
2019-05-10T15:51:16.759Z,3.70
2019-05-10T15:52:51.395Z,3.12
2019-05-10T15:54:25.595Z,3.95
2019-05-10T15:56:03.835Z,2.55
2019-05-10T15:57:36.086Z,3.22
2019-05-10T15:59:12.749Z,2.75
2019-05-10T16:00:46.351Z,2.55
2019-05-10T16:02:20.788Z,2.25
2019-05-10T16:03:55.429Z,2.50
2019-05-10T16:05:43.143Z,2.92
2019-05-10T16:07:09.437Z,3.50
2019-05-10T16:08:41.946Z,3.80
2019-05-10T16:10:17.917Z,2.75
2019-05-10T16:11:55.941Z,2.87
2019-05-10T16:13:28.192Z,3.10
2019-05-10T16:15:02.660Z,4.62
2019-05-10T16:16:39.543Z,5.67
2019-05-10T16:18:13.017Z,4.95
2019-05-10T16:19:50.947Z,3.35
2019-05-10T16:21:23.357Z,3.65
2019-05-10T16:23:02.853Z,4.92
2019-05-10T16:24:33.797Z,3.67
2019-05-10T16:26:08.049Z,3.87
2019-05-10T16:27:44.996Z,3.42
2019-05-10T16:29:18.696Z,2.90
2019-05-10T16:30:53.088Z,3.52
2019-05-10T16:32:29.374Z,79.77
2019-05-10T16:34:03.609Z,19.80
2019-05-10T16:35:39.195Z,18.85
2019-05-10T16:37:13.983Z,12.15
2019-05-10T16:38:48.229Z,7.67
2019-05-10T16:40:22.621Z,6.22
2019-05-10T16:41:57.179Z,4.10
2019-05-10T16:43:31.569Z,5.17
2019-05-10T16:45:06.617Z,4.55
2019-05-10T16:46:41.009Z,4.10
2019-05-10T16:48:15.377Z,4.80
2019-05-10T16:49:53.286Z,4.70
2019-05-10T16:51:25.677Z,5.47
2019-05-10T16:53:05.761Z,12.03
2019-05-10T16:54:37.803Z,5.58
2019-05-10T16:56:13.249Z,5.25
2019-05-10T16:57:48.208Z,3.70
2019-05-10T16:59:24.339Z,3.85
2019-05-10T17:00:58.840Z,5.80
2019-05-10T17:02:36.588Z,5.20
2019-05-10T17:04:09.484Z,4.55
2019-05-10T17:05:52.964Z,4.67
2019-05-10T17:07:20.682Z,4.58
2019-05-10T17:08:55.077Z,4.30
2019-05-10T17:10:32.848Z,4.90
2019-05-10T17:12:05.370Z,4.17
2019-05-10T17:13:41.587Z,4.67
2019-05-10T17:15:15.931Z,5.20
2019-05-10T17:16:58.561Z,6.83
2019-05-10T17:18:26.201Z,6.58
2019-05-10T17:20:00.910Z,4.85
2019-05-10T17:21:35.318Z,5.60
2019-05-10T17:23:11.276Z,4.75
2019-05-10T17:24:45.570Z,5.25
2019-05-10T17:26:20.104Z,8.23
2019-05-10T17:27:57.570Z,6.37
2019-05-10T17:29:31.688Z,7.37
2019-05-10T17:31:07.587Z,6.03
2019-05-10T17:32:43.593Z,6.22
2019-05-10T17:34:27.677Z,7.22
2019-05-10T17:36:07.452Z,6.17
2019-05-10T17:37:35.612Z,7.62
2019-05-10T17:39:07.087Z,7.10
2019-05-10T17:40:42.193Z,6.20
2019-05-10T17:42:17.420Z,7.28
2019-05-10T17:43:51.813Z,6.28
2019-05-10T17:45:26.386Z,7.12
2019-05-10T17:47:00.797Z,10.25
2019-05-10T17:48:35.108Z,23.67
2019-05-10T17:50:09.830Z,34.13
2019-05-10T17:51:44.571Z,15.03
2019-05-10T17:53:24.481Z,16.62
2019-05-10T17:55:00.525Z,19.82
2019-05-10T17:56:38.821Z,21.15
2019-05-10T17:58:11.212Z,18.85
2019-05-10T17:59:46.954Z,18.87
2019-05-10T18:01:21.528Z,17.90
2019-05-10T18:02:55.932Z,19.65
2019-05-10T18:04:30.398Z,18.98
2019-05-10T18:06:05.666Z,14.47
2019-05-10T18:07:39.904Z,14.65
2019-05-10T18:09:14.401Z,22.05
2019-05-10T18:10:48.748Z,33.20
2019-05-10T18:12:26.905Z,31.25
2019-05-10T18:13:59.065Z,28.90
2019-05-10T18:15:34.542Z,27.87
2019-05-10T18:17:09.183Z,25.23
2019-05-10T18:18:47.163Z,36.65
2019-05-10T18:20:19.700Z,22.48
2019-05-10T18:21:54.873Z,36.80
2019-05-10T18:23:30.188Z,37.98
2019-05-10T18:25:05.471Z,22.32
2019-05-10T18:26:41.160Z,25.88
2019-05-10T18:28:19.158Z,19.92
2019-05-10T18:29:51.876Z,19.73
2019-05-10T18:31:27.102Z,14.53
2019-05-10T18:33:01.337Z,12.23
2019-05-10T18:34:37.377Z,11.03
2019-05-10T18:36:12.824Z,9.20
2019-05-10T18:37:47.291Z,9.38
2019-05-10T18:39:21.509Z,7.67
2019-05-10T18:40:56.639Z,9.93
2019-05-10T18:42:31.273Z,8.55
2019-05-10T18:44:05.829Z,8.15
2019-05-10T18:45:40.041Z,8.13
2019-05-10T18:47:14.514Z,7.92
2019-05-10T18:48:50.525Z,7.45
2019-05-10T18:50:24.958Z,7.25
2019-05-10T18:52:04.657Z,7.45
2019-05-10T18:53:35.342Z,7.20
2019-05-10T18:55:10.409Z,7.87
2019-05-10T18:56:44.940Z,9.00
2019-05-10T18:58:23.278Z,11.35
2019-05-10T18:59:55.436Z,11.25
2019-05-10T19:01:32.966Z,10.78
2019-05-10T19:03:05.849Z,9.73
2019-05-10T19:04:40.100Z,10.80
2019-05-10T19:06:14.544Z,15.23
2019-05-10T19:08:02.595Z,29.70
2019-05-10T19:09:25.040Z,29.07
2019-05-10T19:10:59.261Z,26.62
2019-05-10T19:12:34.070Z,23.87
2019-05-10T19:14:10.433Z,21.68
2019-05-10T19:15:46.233Z,22.42
2019-05-10T19:17:20.739Z,23.35
2019-05-10T19:18:56.012Z,22.32
2019-05-10T19:20:31.238Z,23.22
2019-05-10T19:22:08.871Z,17.10
2019-05-10T19:23:41.532Z,12.07
2019-05-10T19:25:15.953Z,9.63
2019-05-10T19:26:50.624Z,8.23
2019-05-10T19:28:26.852Z,6.75
2019-05-10T19:30:00.945Z,6.28
2019-05-10T19:31:38.072Z,4.40
2019-05-10T19:33:12.057Z,4.60
2019-05-10T19:34:48.460Z,4.87
2019-05-10T19:36:22.386Z,5.40
2019-05-10T19:37:58.640Z,3.85
2019-05-10T19:39:33.097Z,4.53
2019-05-10T19:41:07.605Z,4.10
2019-05-10T19:42:42.959Z,3.90
2019-05-10T19:44:17.933Z,5.22
2019-05-10T19:45:57.400Z,5.30
2019-05-10T19:47:28.524Z,5.60
2019-05-10T19:49:07.692Z,8.43
2019-05-10T19:50:38.885Z,7.00
2019-05-10T19:52:13.312Z,5.97
2019-05-10T19:53:47.718Z,6.47
2019-05-10T19:55:22.021Z,6.33
2019-05-10T19:56:56.501Z,5.37
2019-05-10T19:58:32.134Z,6.42
2019-05-10T20:00:12.413Z,5.50
2019-05-10T20:01:46.626Z,6.42
2019-05-10T20:03:21.025Z,8.80
2019-05-10T20:04:55.685Z,7.78
2019-05-10T20:06:30.085Z,7.67
2019-05-10T20:08:04.408Z,6.12
2019-05-10T20:09:38.805Z,6.25
2019-05-10T20:11:13.349Z,6.55
2019-05-10T20:12:49.223Z,6.33
2019-05-10T20:14:23.454Z,6.33
2019-05-10T20:16:01.087Z,6.20
2019-05-10T20:17:34.592Z,6.75
2019-05-10T20:19:11.753Z,14.80
2019-05-10T20:20:46.374Z,21.57
2019-05-10T20:22:20.840Z,17.45
2019-05-10T20:23:55.506Z,19.12
2019-05-10T20:25:29.921Z,19.07
2019-05-10T20:27:04.152Z,16.67
2019-05-10T20:28:39.231Z,15.00
2019-05-10T20:30:14.392Z,15.90
2019-05-10T20:31:48.817Z,12.88
2019-05-10T20:33:23.093Z,9.65
2019-05-10T20:34:57.605Z,9.53
2019-05-10T20:36:33.801Z,9.05
2019-05-10T20:38:08.436Z,8.25
2019-05-10T20:39:42.659Z,8.55
2019-05-10T20:41:17.116Z,8.20
2019-05-10T20:42:51.657Z,9.40
2019-05-10T20:44:26.090Z,9.48
2019-05-10T20:46:00.391Z,9.70
2019-05-10T20:47:34.801Z,8.93
2019-05-10T20:49:09.294Z,8.33
2019-05-10T20:50:45.500Z,9.55
2019-05-10T20:52:21.219Z,10.80
2019-05-10T20:53:55.580Z,7.37
2019-05-10T20:55:30.239Z,8.50
2019-05-10T20:57:04.690Z,12.07
2019-05-10T20:58:39.203Z,8.80
2019-05-10T21:00:13.777Z,9.90
2019-05-10T21:01:48.302Z,9.18
2019-05-10T21:03:23.749Z,9.38
2019-05-10T21:04:59.259Z,8.93
2019-05-10T21:06:36.251Z,8.65
2019-05-10T21:08:16.877Z,8.40
2019-05-10T21:09:47.419Z,8.60
2019-05-10T21:11:21.624Z,8.03
2019-05-10T21:12:57.543Z,8.65
2019-05-10T21:14:32.112Z,8.70
2019-05-10T21:16:07.916Z,10.10
2019-05-10T21:17:42.123Z,8.28
2019-05-10T21:19:19.972Z,8.15
2019-05-10T21:20:54.778Z,7.90
2019-05-10T21:22:30.640Z,8.63
2019-05-10T21:24:04.824Z,7.72
2019-05-10T21:25:39.214Z,8.23
2019-05-10T21:27:13.648Z,7.92
2019-05-10T21:28:49.296Z,9.05
2019-05-10T21:30:23.501Z,8.13
2019-05-10T21:31:57.911Z,9.03
2019-05-10T21:33:32.269Z,9.28
2019-05-10T21:35:06.969Z,10.48
2019-05-10T21:36:41.256Z,9.35
2019-05-10T21:38:31.650Z,11.05
2019-05-10T21:39:53.461Z,9.23